Linda — OJML — position and weather

sailwx.info

Track history (hours):
 
Tides and Currents Weather Stations Pressure Air Temp Water Temp Dewpoint Dewpoint Depression Visibility Wind Speed Wind Dir Waves Ship Positions

Linda

Last reported at 2015-Jan-28 05:33 UTC. Time now 2015-Jan-28 06:37 UTC.
Position N 54°02' E 007°48'.

Length 141 m; draft 8.3 m.

Type: Ship (hazmat cat A). MMSI: 230984000.

Date/timePositionNaut miles runAvg speedWind from/ knotsBaromVisibWave heightAir tempDewpointWater temp
2015-Jan-28 05:33N 54°02' E 007°48'1515.4
2015-Jan-28 04:33N 54°01' E 008°14'1413.7
2015-Jan-28 03:33N 53°57' E 008°37'1212.2
2015-Jan-28 02:34N 53°51' E 008°54'9 9.4
2015-Jan-28 01:33N 53°54' E 009°09'1 0.7
2015-Jan-28 00:33N 53°54' E 009°10'0 0.4
2015-Jan-27 23:33N 53°54' E 009°10'1 0.9
2015-Jan-27 22:33N 53°55' E 009°11'4 4.4
2015-Jan-27 21:33N 53°58' E 009°16'6 6.2
2015-Jan-27 20:33N 54°04' E 009°19'8 7.5
2015-Jan-27 19:33N 54°10' E 009°27'11 5.6
2015-Jan-27 17:33N 54°18' E 009°41'7 7.5
2015-Jan-27 16:33N 54°22' E 009°52'7 7.4
2015-Jan-27 15:33N 54°22' E 010°05'3 2.6
2015-Jan-27 14:33N 54°22' E 010°09'1010.5
2015-Jan-27 13:33N 54°30' E 010°20'1615.8
2015-Jan-27 12:33N 54°35' E 010°46'1616.0
2015-Jan-27 11:33N 54°35' E 011°13'1616.0
2015-Jan-27 10:33N 54°28' E 011°38'1514.8
2015-Jan-27 09:33N 54°26' E 012°03'2114.7
2015-Jan-27 08:09N 54°41' E 012°28'2415.0
2015-Jan-27 06:33N 54°46' E 013°09'1615.7
2015-Jan-27 05:33N 54°44' E 013°35'1615.6
2015-Jan-27 04:33N 54°40' E 014°01'1616.1
2015-Jan-27 03:33N 54°38' E 014°29'2116.4
2015-Jan-27 02:15N 54°46' E 015°04'1216.3
2015-Jan-27 01:31N 54°50' E 015°23'1616.0
2015-Jan-27 00:32N 54°55' E 015°49'  
2015-Jan-23 23:08N 59°35' E 021°18'1016.7
2015-Jan-23 22:33N 59°34' E 021°37'5116.7
2015-Jan-23 19:30N 59°40' E 023°17'1617.2
2015-Jan-23 18:33N 59°43' E 023°48'7217.2
2015-Jan-23 14:21N 59°58' E 026°09'1417.3
2015-Jan-23 13:33N 60°01' E 026°36'1716.9
2015-Jan-23 12:32N 60°02' E 027°10'22 0.7
2015-Jan-22 03:30N 59°58' E 026°27'3913.2
2015-Jan-22 00:34N 60°06' E 025°11'7 6.8
2015-Jan-21 23:33N 60°13' E 025°12'0 0.0
2015-Jan-21 22:39N 60°13' E 025°12'0 0.0
2015-Jan-21 22:09N 60°13' E 025°12'0 0.0
2015-Jan-21 21:30N 60°13' E 025°12'0 0.0
2015-Jan-21 19:18N 60°13' E 025°12'2 2.3
2015-Jan-21 18:32N 60°11' E 025°13'2914.8
2015-Jan-21 16:33N 59°46' E 024°43'1615.4
2015-Jan-21 15:33N 59°41' E 024°14'366 8.5
2015-Jan-19 20:20N 55°41' E 015°37'1316.6
2015-Jan-19 19:33N 55°35' E 015°17'1616.3
2015-Jan-19 18:33N 55°27' E 014°52'1716.6
2015-Jan-19 17:33N 55°16' E 014°30'1716.8
2015-Jan-19 16:33N 55°03' E 014°11'1616.3
2015-Jan-19 15:33N 54°56' E 013°45'1615.9
2015-Jan-19 14:32N 54°50' E 013°19'1515.4
2015-Jan-19 13:33N 54°45' E 012°55'1515.2
2015-Jan-19 12:33N 54°37' E 012°33'1515.0
2015-Jan-19 11:33N 54°27' E 012°13'1514.9
2015-Jan-19 10:34N 54°21' E 011°49'1616.2
2015-Jan-19 09:33N 54°13' E 011°26'1614.6
2015-Jan-19 08:28N 54°03' E 011°03'2 0.1
2015-Jan-18 17:33N 54°05' E 011°06'1615.6
2015-Jan-18 16:34N 54°16' E 011°23'1615.7
2015-Jan-18 15:33N 54°32' E 011°21'1615.9
2015-Jan-18 14:33N 54°34' E 010°54'1716.8
2015-Jan-18 13:34N 54°31' E 010°26'1313.0
2015-Jan-18 12:33N 54°22' E 010°09'2 1.9
2015-Jan-18 11:33N 54°22' E 010°06'8 7.5
2015-Jan-18 10:33N 54°21' E 009°54'7 7.0
2015-Jan-18 09:33N 54°18' E 009°43'6 6.0
2015-Jan-18 08:33N 54°14' E 009°36'9 8.5
2015-Jan-18 07:34N 54°10' E 009°24'8 7.6
2015-Jan-18 06:34N 54°03' E 009°18'6 6.4
2015-Jan-18 05:33N 53°57' E 009°14'  
Track history (hours):
 
Tides and Currents Weather Stations Pressure Air Temp Water Temp Dewpoint Dewpoint Depression Visibility Wind Speed Wind Dir Waves Ship Positions

Linda

Last reported at 2015-Jan-28 05:33 UTC. Time now 2015-Jan-28 06:37 UTC.
Position N 54°02' E 007°48'.

Length 141 m; draft 8.3 m.

Type: Ship (hazmat cat A). MMSI: 230984000.

Date/timePositionNaut miles runAvg speedWind from/ knotsBaromVisibWave heightAir tempDewpointWater temp
2015-Jan-28 05:33N 54°02' E 007°48'1515.4
2015-Jan-28 04:33N 54°01' E 008°14'1413.7
2015-Jan-28 03:33N 53°57' E 008°37'1212.2
2015-Jan-28 02:34N 53°51' E 008°54'9 9.4
2015-Jan-28 01:33N 53°54' E 009°09'1 0.7
2015-Jan-28 00:33N 53°54' E 009°10'0 0.4
2015-Jan-27 23:33N 53°54' E 009°10'1 0.9
2015-Jan-27 22:33N 53°55' E 009°11'4 4.4
2015-Jan-27 21:33N 53°58' E 009°16'6 6.2
2015-Jan-27 20:33N 54°04' E 009°19'8 7.5
2015-Jan-27 19:33N 54°10' E 009°27'11 5.6
2015-Jan-27 17:33N 54°18' E 009°41'7 7.5
2015-Jan-27 16:33N 54°22' E 009°52'7 7.4
2015-Jan-27 15:33N 54°22' E 010°05'3 2.6
2015-Jan-27 14:33N 54°22' E 010°09'1010.5
2015-Jan-27 13:33N 54°30' E 010°20'1615.8
2015-Jan-27 12:33N 54°35' E 010°46'1616.0
2015-Jan-27 11:33N 54°35' E 011°13'1616.0
2015-Jan-27 10:33N 54°28' E 011°38'1514.8
2015-Jan-27 09:33N 54°26' E 012°03'2114.7
2015-Jan-27 08:09N 54°41' E 012°28'2415.0
2015-Jan-27 06:33N 54°46' E 013°09'1615.7
2015-Jan-27 05:33N 54°44' E 013°35'1615.6
2015-Jan-27 04:33N 54°40' E 014°01'1616.1
2015-Jan-27 03:33N 54°38' E 014°29'2116.4
2015-Jan-27 02:15N 54°46' E 015°04'1216.3
2015-Jan-27 01:31N 54°50' E 015°23'1616.0
2015-Jan-27 00:32N 54°55' E 015°49'  
2015-Jan-23 23:08N 59°35' E 021°18'1016.7
2015-Jan-23 22:33N 59°34' E 021°37'5116.7
2015-Jan-23 19:30N 59°40' E 023°17'1617.2
2015-Jan-23 18:33N 59°43' E 023°48'7217.2
2015-Jan-23 14:21N 59°58' E 026°09'1417.3
2015-Jan-23 13:33N 60°01' E 026°36'1716.9
2015-Jan-23 12:32N 60°02' E 027°10'22 0.7
2015-Jan-22 03:30N 59°58' E 026°27'3913.2
2015-Jan-22 00:34N 60°06' E 025°11'7 6.8
2015-Jan-21 23:33N 60°13' E 025°12'0 0.0
2015-Jan-21 22:39N 60°13' E 025°12'0 0.0
2015-Jan-21 22:09N 60°13' E 025°12'0 0.0
2015-Jan-21 21:30N 60°13' E 025°12'0 0.0
2015-Jan-21 19:18N 60°13' E 025°12'2 2.3
2015-Jan-21 18:32N 60°11' E 025°13'2914.8
2015-Jan-21 16:33N 59°46' E 024°43'1615.4
2015-Jan-21 15:33N 59°41' E 024°14'366 8.5
2015-Jan-19 20:20N 55°41' E 015°37'1316.6
2015-Jan-19 19:33N 55°35' E 015°17'1616.3
2015-Jan-19 18:33N 55°27' E 014°52'1716.6
2015-Jan-19 17:33N 55°16' E 014°30'1716.8
2015-Jan-19 16:33N 55°03' E 014°11'1616.3
2015-Jan-19 15:33N 54°56' E 013°45'1615.9
2015-Jan-19 14:32N 54°50' E 013°19'1515.4
2015-Jan-19 13:33N 54°45' E 012°55'1515.2
2015-Jan-19 12:33N 54°37' E 012°33'1515.0
2015-Jan-19 11:33N 54°27' E 012°13'1514.9
2015-Jan-19 10:34N 54°21' E 011°49'1616.2
2015-Jan-19 09:33N 54°13' E 011°26'1614.6
2015-Jan-19 08:28N 54°03' E 011°03'2 0.1
2015-Jan-18 17:33N 54°05' E 011°06'1615.6
2015-Jan-18 16:34N 54°16' E 011°23'1615.7
2015-Jan-18 15:33N 54°32' E 011°21'1615.9
2015-Jan-18 14:33N 54°34' E 010°54'1716.8
2015-Jan-18 13:34N 54°31' E 010°26'1313.0
2015-Jan-18 12:33N 54°22' E 010°09'2 1.9
2015-Jan-18 11:33N 54°22' E 010°06'8 7.5
2015-Jan-18 10:33N 54°21' E 009°54'7 7.0
2015-Jan-18 09:33N 54°18' E 009°43'6 6.0
2015-Jan-18 08:33N 54°14' E 009°36'9 8.5
2015-Jan-18 07:34N 54°10' E 009°24'8 7.6
2015-Jan-18 06:34N 54°03' E 009°18'6 6.4
2015-Jan-18 05:33N 53°57' E 009°14'  

Dump ship's entire track history